Time;durP1;ratioP1;P1;durP2;ratioP2;P2;SDS_P1;SDS_P2;PMS_P1;PMS_P2;Temp;Humidity;BMP_temperature;BMP_pressure;BME280_temperature;BME280_humidity;BME280_pressure;Samples;Min_cycle;Max_cycle;Signal;HPM_P1;HPM_P2
2022/07/09 00:01:17;;;;;;;4.72;3.90;;;18.50;99.90;;;;;;5026816;28;20487;-35
2022/07/09 00:03:42;;;;;;;3.35;3.05;;;18.50;99.90;;;;;;5014684;28;20041;-36
2022/07/09 00:06:08;;;;;;;5.85;3.63;;;18.50;99.90;;;;;;5028415;28;20033;-34
2022/07/09 00:08:34;;;;;;;4.93;4.25;;;18.50;99.90;;;;;;5015073;28;20055;-35
2022/07/09 00:10:59;;;;;;;4.60;3.72;;;18.50;99.90;;;;;;5026383;28;20028;-35
2022/07/09 00:13:25;;;;;;;4.10;3.60;;;18.40;99.90;;;;;;5017683;28;20041;-34
2022/07/09 00:15:52;;;;;;;6.15;4.10;;;18.40;99.90;;;;;;5023462;28;20072;-33
2022/07/09 00:18:18;;;;;;;4.40;4.00;;;18.40;99.90;;;;;;5020875;28;20036;-33
2022/07/09 00:20:43;;;;;;;6.97;4.13;;;18.30;99.90;;;;;;5020859;28;20041;-34
2022/07/09 00:23:09;;;;;;;5.13;3.97;;;18.30;99.90;;;;;;5023599;28;20045;-34
2022/07/09 00:25:35;;;;;;;4.65;4.20;;;18.30;99.90;;;;;;5017788;28;20048;-35
2022/07/09 00:28:00;;;;;;;7.03;5.22;;;18.30;99.90;;;;;;5025674;28;20442;-34
2022/07/09 00:30:26;;;;;;;5.57;4.75;;;18.30;99.90;;;;;;5015432;28;20028;-34
2022/07/09 00:32:52;;;;;;;5.53;4.97;;;18.30;99.90;;;;;;5025759;28;20067;-34
2022/07/09 00:35:17;;;;;;;6.43;5.13;;;18.20;99.90;;;;;;5015255;28;20029;-34
2022/07/09 00:37:43;;;;;;;7.20;4.60;;;18.20;99.90;;;;;;5026773;28;20075;-33
2022/07/09 00:40:09;;;;;;;6.47;4.20;;;18.10;99.90;;;;;;5014521;28;20036;-34
2022/07/09 00:42:34;;;;;;;5.35;4.57;;;18.10;99.90;;;;;;5025796;28;20083;-33
2022/07/09 00:45:00;;;;;;;5.63;4.35;;;18.10;99.90;;;;;;5014570;28;20543;-34
2022/07/09 00:47:25;;;;;;;6.63;5.28;;;18.10;99.90;;;;;;5026990;28;20485;-34
2022/07/09 00:49:52;;;;;;;5.90;5.28;;;18.00;99.90;;;;;;5015962;28;20493;-34
2022/07/09 00:52:17;;;;;;;4.95;4.13;;;18.00;99.90;;;;;;5025341;28;20072;-34
2022/07/09 00:54:45;;;;;;;9.13;5.15;;;18.00;99.90;;;;;;5017840;28;20049;-34
2022/07/09 00:57:11;;;;;;;5.45;4.65;;;18.00;99.90;;;;;;5022252;28;20033;-35
2022/07/09 00:59:38;;;;;;;4.75;4.22;;;18.00;99.90;;;;;;5023772;28;20013;-34
2022/07/09 01:02:08;;;;;;;5.50;4.80;;;17.90;99.90;;;;;;5018984;28;20026;-34
2022/07/09 01:04:34;;;;;;;8.30;5.82;;;17.90;99.90;;;;;;5025105;28;20427;-35
2022/07/09 01:07:00;;;;;;;4.80;4.00;;;17.90;99.90;;;;;;5026588;28;20033;-33
2022/07/09 01:09:28;;;;;;;5.10;4.45;;;17.80;99.90;;;;;;5026142;28;20063;-34
2022/07/09 01:11:54;;;;;;;6.03;4.88;;;17.80;99.90;;;;;;5006146;28;20117;-34
2022/07/09 01:14:19;;;;;;;5.88;5.28;;;17.80;99.90;;;;;;5009909;28;20112;-35
2022/07/09 01:16:45;;;;;;;5.95;4.80;;;17.80;99.90;;;;;;5026110;28;20066;-34
2022/07/09 01:19:11;;;;;;;6.30;5.70;;;17.70;99.90;;;;;;5025923;28;20026;-35
2022/07/09 01:21:37;;;;;;;6.07;5.45;;;17.70;99.90;;;;;;5025192;28;20052;-35
2022/07/09 01:24:03;;;;;;;6.18;5.18;;;17.60;99.90;;;;;;5026662;28;20068;-35
2022/07/09 01:26:28;;;;;;;5.05;4.57;;;17.60;99.90;;;;;;5024799;28;20037;-34
2022/07/09 01:28:54;;;;;;;5.13;4.72;;;17.60;99.90;;;;;;5026313;28;20036;-33
2022/07/09 01:31:19;;;;;;;5.25;4.53;;;17.60;99.90;;;;;;5025676;28;20584;-34
2022/07/09 01:33:45;;;;;;;5.35;4.55;;;17.60;99.90;;;;;;5025425;28;20026;-33
2022/07/09 01:36:12;;;;;;;7.22;5.38;;;17.60;99.90;;;;;;5026398;28;20072;-35
2022/07/09 01:38:37;;;;;;;5.65;5.15;;;17.50;99.90;;;;;;5024741;28;20032;-34
2022/07/09 01:41:03;;;;;;;5.43;4.93;;;17.60;99.90;;;;;;5025865;28;20021;-34
2022/07/09 01:43:30;;;;;;;6.93;5.18;;;17.60;99.90;;;;;;5025380;28;20029;-34
2022/07/09 01:45:56;;;;;;;6.25;5.65;;;17.70;99.90;;;;;;5025236;28;20060;-35
2022/07/09 01:48:22;;;;;;;5.95;5.32;;;17.70;99.90;;;;;;5025833;28;20040;-34
2022/07/09 01:50:48;;;;;;;5.05;4.40;;;17.70;99.90;;;;;;5025492;28;20017;-35
2022/07/09 01:53:14;;;;;;;7.18;4.88;;;17.70;99.90;;;;;;5024854;28;20029;-34
2022/07/09 01:55:39;;;;;;;5.25;4.75;;;17.60;99.90;;;;;;5025462;28;20572;-35
2022/07/09 01:58:05;;;;;;;6.57;4.93;;;17.60;99.90;;;;;;5026500;28;20079;-34
2022/07/09 02:00:30;;;;;;;5.30;4.82;;;17.60;99.90;;;;;;5024799;28;20021;-33
2022/07/09 02:02:57;;;;;;;5.30;4.78;;;17.70;99.90;;;;;;5025567;28;20081;-34
2022/07/09 02:05:22;;;;;;;6.40;5.10;;;17.60;99.90;;;;;;5025541;28;20025;-35
2022/07/09 02:07:48;;;;;;;6.88;5.30;;;17.60;99.90;;;;;;5024327;28;20041;-34
2022/07/09 02:10:14;;;;;;;4.50;4.10;;;17.50;99.90;;;;;;5025926;28;20496;-34
2022/07/09 02:12:40;;;;;;;6.45;5.53;;;17.40;99.90;;;;;;5025573;28;20037;-34
2022/07/09 02:15:07;;;;;;;6.07;5.13;;;17.30;99.90;;;;;;5025164;28;20083;-34
2022/07/09 02:17:34;;;;;;;8.95;6.38;;;17.30;99.90;;;;;;5025304;28;20467;-34
2022/07/09 02:19:59;;;;;;;6.75;5.50;;;17.20;99.90;;;;;;5025883;28;20031;-34
2022/07/09 02:22:25;;;;;;;6.38;5.75;;;17.10;99.90;;;;;;5024400;28;20025;-35
2022/07/09 02:24:50;;;;;;;6.28;5.10;;;17.10;99.90;;;;;;5025993;28;20037;-35
2022/07/09 02:27:16;;;;;;;6.53;5.68;;;17.20;99.90;;;;;;5025185;28;20061;-35
2022/07/09 02:29:41;;;;;;;5.22;4.72;;;17.20;99.90;;;;;;5024699;28;20383;-35
2022/07/09 02:32:10;;;;;;;5.63;4.97;;;17.20;99.90;;;;;;5026062;28;20108;-35
2022/07/09 02:34:36;;;;;;;4.68;4.18;;;17.30;99.90;;;;;;5024917;28;20160;-34
2022/07/09 02:37:01;;;;;;;5.38;4.82;;;17.30;99.90;;;;;;5024616;28;20108;-34
2022/07/09 02:39:27;;;;;;;5.47;4.80;;;17.20;99.90;;;;;;5025061;28;20492;-35
2022/07/09 02:41:52;;;;;;;7.13;5.30;;;17.20;99.90;;;;;;5024781;28;20040;-36
2022/07/09 02:44:18;;;;;;;5.60;5.07;;;17.30;99.90;;;;;;5025108;28;20053;-35
2022/07/09 02:46:43;;;;;;;5.63;5.03;;;17.30;99.90;;;;;;5025641;28;20298;-35
2022/07/09 02:49:10;;;;;;;7.63;5.63;;;17.30;99.90;;;;;;5024535;28;20032;-34
2022/07/09 02:51:36;;;;;;;5.60;4.70;;;17.30;99.90;;;;;;5024839;28;20365;-35
2022/07/09 02:54:01;;;;;;;7.57;6.78;;;17.20;99.90;;;;;;5025738;28;20028;-34
2022/07/09 02:56:27;;;;;;;8.32;6.82;;;17.10;99.90;;;;;;5024664;28;20525;-34
2022/07/09 02:58:52;;;;;;;9.30;7.85;;;17.10;99.90;;;;;;5025608;28;20044;-36
2022/07/09 03:01:18;;;;;;;8.70;7.47;;;17.00;99.90;;;;;;5025650;28;20017;-36
2022/07/09 03:03:46;;;;;;;8.85;7.60;;;17.00;99.90;;;;;;5023785;28;20045;-35
2022/07/09 03:06:12;;;;;;;12.27;8.98;;;16.90;99.90;;;;;;5025442;28;20025;-35
2022/07/09 03:08:38;;;;;;;9.82;8.18;;;16.90;99.90;;;;;;5024401;28;20025;-34
2022/07/09 03:11:06;;;;;;;11.63;9.50;;;16.80;99.90;;;;;;5024664;28;20025;-34
2022/07/09 03:13:35;;;;;;;10.38;7.95;;;16.80;99.90;;;;;;5024290;28;20377;-34
2022/07/09 03:16:01;;;;;;;8.70;7.80;;;16.90;99.90;;;;;;5005964;28;20065;-34
2022/07/09 03:18:26;;;;;;;9.63;8.63;;;16.90;99.90;;;;;;5009393;28;20105;-35
2022/07/09 03:20:52;;;;;;;7.40;6.70;;;16.90;99.90;;;;;;5028655;28;20013;-34
2022/07/09 03:23:18;;;;;;;9.18;7.53;;;17.00;99.90;;;;;;5028695;28;20617;-34
2022/07/09 03:25:43;;;;;;;7.82;6.82;;;17.00;99.90;;;;;;5028040;28;20052;-35
2022/07/09 03:28:09;;;;;;;9.95;8.52;;;17.00;99.90;;;;;;5028194;28;20500;-34
2022/07/09 03:30:35;;;;;;;12.75;10.23;;;16.90;99.90;;;;;;5028071;28;20129;-34
2022/07/09 03:33:01;;;;;;;9.02;8.10;;;16.90;99.90;;;;;;5027829;28;20559;-34
2022/07/09 03:35:26;;;;;;;11.45;9.60;;;16.90;99.90;;;;;;5027508;28;20021;-35
2022/07/09 03:37:52;;;;;;;13.35;11.95;;;16.80;99.90;;;;;;5028945;28;20029;-35
2022/07/09 03:40:17;;;;;;;11.43;9.88;;;16.80;99.90;;;;;;5027071;28;20025;-35
2022/07/09 03:42:43;;;;;;;13.18;10.50;;;16.80;99.90;;;;;;5028346;28;20021;-35
2022/07/09 03:45:09;;;;;;;15.10;11.98;;;16.80;99.90;;;;;;5028196;28;20457;-37
2022/07/09 03:47:34;;;;;;;12.68;10.65;;;16.80;99.90;;;;;;5027725;28;20041;-35
2022/07/09 03:50:01;;;;;;;14.85;12.52;;;16.80;99.90;;;;;;5027860;28;20025;-35
2022/07/09 03:52:26;;;;;;;16.23;12.80;;;16.80;99.90;;;;;;5027006;28;20025;-35
2022/07/09 03:54:52;;;;;;;14.52;12.90;;;16.90;99.90;;;;;;5028297;28;20088;-34
2022/07/09 03:57:17;;;;;;;18.35;13.27;;;16.90;99.90;;;;;;5027929;28;20036;-34
2022/07/09 03:59:43;;;;;;;16.75;13.57;;;16.90;99.90;;;;;;5026553;28;20470;-34
2022/07/09 04:02:08;;;;;;;16.98;13.60;;;16.90;99.90;;;;;;5028260;28;20021;-35
2022/07/09 04:04:34;;;;;;;15.98;14.00;;;17.00;99.90;;;;;;5027100;28;20056;-33
2022/07/09 04:06:59;;;;;;;15.48;12.55;;;17.00;99.90;;;;;;5027092;28;20052;-35
2022/07/09 04:09:25;;;;;;;15.70;13.73;;;17.00;99.90;;;;;;5027701;28;20021;-35
2022/07/09 04:11:50;;;;;;;16.42;14.10;;;17.10;99.90;;;;;;5027668;28;20033;-34
2022/07/09 04:14:19;;;;;;;19.77;15.98;;;17.10;99.90;;;;;;5007175;28;20489;-35
2022/07/09 04:16:45;;;;;;;16.65;14.38;;;17.10;99.90;;;;;;5021838;28;20068;-34
2022/07/09 04:19:10;;;;;;;18.38;14.35;;;17.10;99.90;;;;;;5027641;28;20548;-34
2022/07/09 04:21:36;;;;;;;19.25;14.18;;;17.10;99.90;;;;;;5026448;28;20021;-34
2022/07/09 04:24:02;;;;;;;17.88;13.77;;;17.10;99.90;;;;;;5028005;28;20114;-35
2022/07/09 04:26:27;;;;;;;21.13;15.23;;;17.10;99.90;;;;;;5027157;28;20163;-34
2022/07/09 04:28:53;;;;;;;20.25;15.93;;;17.10;99.90;;;;;;5026895;28;20468;-35
2022/07/09 04:31:19;;;;;;;18.30;14.82;;;17.10;99.90;;;;;;5027232;28;20029;-35
2022/07/09 04:33:45;;;;;;;16.45;13.38;;;17.10;99.90;;;;;;5026928;28;20071;-34
2022/07/09 04:36:10;;;;;;;14.80;12.90;;;17.10;99.90;;;;;;5026766;28;20499;-35
2022/07/09 04:38:36;;;;;;;15.68;12.82;;;17.10;99.90;;;;;;5026742;28;20029;-35
2022/07/09 04:41:02;;;;;;;16.25;12.15;;;17.10;99.90;;;;;;5026798;28;20594;-34
2022/07/09 04:43:29;;;;;;;14.52;10.45;;;17.20;99.90;;;;;;5026134;28;20044;-34
2022/07/09 04:45:55;;;;;;;11.45;10.18;;;17.20;99.90;;;;;;5027542;28;20029;-34
2022/07/09 04:48:20;;;;;;;11.98;9.13;;;17.20;99.90;;;;;;5026030;28;20687;-35
2022/07/09 04:50:46;;;;;;;10.30;8.95;;;17.30;99.90;;;;;;5026503;28;20516;-35
2022/07/09 04:53:11;;;;;;;11.18;9.32;;;17.30;99.90;;;;;;5027074;28;20090;-34
2022/07/09 04:55:37;;;;;;;10.30;8.02;;;17.40;99.90;;;;;;5026009;28;20022;-34
2022/07/09 04:58:02;;;;;;;9.95;8.27;;;17.50;99.90;;;;;;5026693;28;20028;-34
2022/07/09 05:00:28;;;;;;;11.15;8.77;;;17.50;99.90;;;;;;5026230;28;20025;-35
2022/07/09 05:02:53;;;;;;;10.00;8.73;;;17.60;99.90;;;;;;5025956;28;20452;-36
2022/07/09 05:05:23;;;;;;;9.18;8.18;;;17.60;99.90;;;;;;5026993;28;20025;-34
2022/07/09 05:07:48;;;;;;;9.23;8.10;;;17.70;99.90;;;;;;5026598;28;20077;-43
2022/07/09 05:10:14;;;;;;;11.38;9.00;;;17.80;99.90;;;;;;5026458;28;20529;-34
2022/07/09 05:12:40;;;;;;;10.68;9.23;;;17.90;99.90;;;;;;5026404;28;20029;-35
2022/07/09 05:15:06;;;;;;;10.80;8.48;;;18.00;99.90;;;;;;5027065;28;20032;-35
2022/07/09 05:17:36;;;;;;;9.43;8.43;;;18.10;99.90;;;;;;5025429;28;20400;-34
2022/07/09 05:20:06;;;;;;;11.27;9.00;;;18.10;99.90;;;;;;5027111;28;20018;-34
2022/07/09 05:22:32;;;;;;;10.80;9.00;;;18.20;99.90;;;;;;5026280;28;20030;-35
2022/07/09 05:24:58;;;;;;;9.27;8.35;;;18.20;99.90;;;;;;5026522;28;20052;-34
2022/07/09 05:27:25;;;;;;;10.93;8.65;;;18.20;99.90;;;;;;5025913;28;20063;-34
2022/07/09 05:29:51;;;;;;;11.90;8.63;;;18.30;99.90;;;;;;5025417;28;20120;-34
2022/07/09 05:32:16;;;;;;;11.52;9.15;;;18.40;99.90;;;;;;5025589;28;20029;-34
2022/07/09 05:34:42;;;;;;;8.50;7.70;;;18.40;99.90;;;;;;5025780;28;20031;-34
2022/07/09 05:37:08;;;;;;;9.02;8.13;;;18.50;99.90;;;;;;5026900;28;20056;-36
2022/07/09 05:39:33;;;;;;;10.10;8.48;;;18.50;99.90;;;;;;5024601;28;20057;-35
2022/07/09 05:41:59;;;;;;;11.20;8.48;;;18.50;99.90;;;;;;5025641;28;20045;-34
2022/07/09 05:44:24;;;;;;;10.68;9.55;;;18.50;99.90;;;;;;5025228;28;20033;-34
2022/07/09 05:46:50;;;;;;;10.07;8.30;;;18.50;99.90;;;;;;5025663;28;20463;-35
2022/07/09 05:49:15;;;;;;;8.82;7.88;;;18.50;99.90;;;;;;5025569;28;20029;-35
2022/07/09 05:51:41;;;;;;;8.02;7.22;;;18.60;99.90;;;;;;5024956;28;20026;-35
2022/07/09 05:54:06;;;;;;;7.88;7.07;;;18.70;99.90;;;;;;5025774;28;20063;-34
2022/07/09 05:56:32;;;;;;;8.57;6.97;;;18.80;99.90;;;;;;5025197;28;20084;-34
2022/07/09 05:58:57;;;;;;;7.40;6.60;;;18.90;99.90;;;;;;5025296;28;20377;-34
2022/07/09 06:01:23;;;;;;;8.07;6.20;;;19.00;99.90;;;;;;5025474;28;20021;-34
2022/07/09 06:03:49;;;;;;;5.88;5.32;;;19.20;99.90;;;;;;5025606;28;20107;-35
2022/07/09 06:06:14;;;;;;;7.00;5.95;;;19.20;99.90;;;;;;5024400;28;20065;-34
2022/07/09 06:08:40;;;;;;;7.28;5.63;;;19.30;99.90;;;;;;5025893;28;20052;-35
2022/07/09 06:11:06;;;;;;;7.40;5.95;;;19.30;99.90;;;;;;5025529;28;20486;-35
2022/07/09 06:13:31;;;;;;;6.22;4.95;;;19.40;99.90;;;;;;5024588;28;20095;-34
2022/07/09 06:15:57;;;;;;;4.80;4.22;;;19.40;99.90;;;;;;5025771;28;20075;-34
2022/07/09 06:18:22;;;;;;;5.88;4.75;;;19.50;99.90;;;;;;5025489;28;20034;-35
2022/07/09 06:20:48;;;;;;;7.15;4.75;;;19.60;99.90;;;;;;5025058;28;20022;-35
2022/07/09 06:23:14;;;;;;;5.20;4.68;;;19.60;99.90;;;;;;5025824;28;20120;-34
2022/07/09 06:25:40;;;;;;;5.93;4.18;;;19.70;99.90;;;;;;5025476;28;20028;-35
2022/07/09 06:28:06;;;;;;;4.30;3.85;;;19.70;99.90;;;;;;5024453;28;20431;-34
2022/07/09 06:30:33;;;;;;;4.15;3.75;;;19.70;99.90;;;;;;5024843;28;20021;-35
2022/07/09 06:32:59;;;;;;;7.20;5.68;;;19.80;99.90;;;;;;5025857;28;20037;-36
2022/07/09 06:35:24;;;;;;;7.13;6.40;;;19.90;99.90;;;;;;5024136;28;20032;-35
2022/07/09 06:37:50;;;;;;;7.80;5.97;;;19.90;99.90;;;;;;5024731;28;20057;-34
2022/07/09 06:40:16;;;;;;;7.28;6.57;;;19.90;99.90;;;;;;5006762;28;20021;-34
2022/07/09 06:42:41;;;;;;;6.93;6.03;;;19.90;99.90;;;;;;5015162;28;20133;-34
2022/07/09 06:45:07;;;;;;;7.93;6.50;;;19.90;99.90;;;;;;5004742;28;20025;-34
2022/07/09 06:47:33;;;;;;;5.93;5.32;;;20.00;99.90;;;;;;5015171;28;20042;-33
2022/07/09 06:49:59;;;;;;;7.25;5.85;;;20.00;99.90;;;;;;5003885;28;20484;-34
2022/07/09 06:52:25;;;;;;;6.72;5.25;;;20.10;99.90;;;;;;5019197;28;20029;-34
2022/07/09 06:54:50;;;;;;;6.70;5.28;;;20.20;99.90;;;;;;5008452;28;20033;-35
2022/07/09 06:57:17;;;;;;;5.50;4.47;;;20.30;99.90;;;;;;5018820;28;20029;-35
2022/07/09 06:59:43;;;;;;;4.78;4.28;;;20.30;99.90;;;;;;5009300;28;20049;-35
2022/07/09 07:02:09;;;;;;;4.93;4.10;;;20.40;99.90;;;;;;5014625;28;20033;-36
2022/07/09 07:04:34;;;;;;;3.80;3.40;;;20.40;99.90;;;;;;5007973;28;20060;-35
2022/07/09 07:07:00;;;;;;;4.70;3.72;;;20.40;99.90;;;;;;5014500;28;20067;-35
2022/07/09 07:09:25;;;;;;;4.85;3.58;;;20.40;99.90;;;;;;5013095;28;20026;-35
2022/07/09 07:11:51;;;;;;;3.92;3.17;;;20.40;99.90;;;;;;5012427;28;20465;-35
2022/07/09 07:14:17;;;;;;;4.35;3.58;;;20.50;99.90;;;;;;5016887;28;20030;-35
2022/07/09 07:16:44;;;;;;;4.78;4.30;;;20.50;99.90;;;;;;5008742;28;20030;-33
2022/07/09 07:19:10;;;;;;;4.72;4.22;;;20.70;99.90;;;;;;5019008;28;20025;-33
2022/07/09 07:21:36;;;;;;;4.88;3.85;;;20.80;99.90;;;;;;5008705;28;20018;-34
2022/07/09 07:24:02;;;;;;;4.28;3.88;;;20.90;99.90;;;;;;5019527;28;20026;-35
2022/07/09 07:26:27;;;;;;;4.55;4.15;;;20.90;99.90;;;;;;5007605;28;20099;-35
2022/07/09 07:28:54;;;;;;;4.85;4.28;;;20.90;99.90;;;;;;5019288;28;20033;-34
2022/07/09 07:31:19;;;;;;;4.32;3.92;;;21.00;99.90;;;;;;5006975;28;20030;-34
2022/07/09 07:33:45;;;;;;;5.30;4.32;;;21.00;99.90;;;;;;5019916;28;20296;-35
2022/07/09 07:36:11;;;;;;;4.28;3.88;;;21.00;99.90;;;;;;5008088;28;20122;-34
2022/07/09 07:38:36;;;;;;;5.55;4.47;;;21.00;99.90;;;;;;5017471;28;20365;-34
2022/07/09 07:41:02;;;;;;;5.35;4.40;;;21.00;99.90;;;;;;5008695;28;20119;-37
2022/07/09 07:43:27;;;;;;;4.78;4.22;;;21.10;99.90;;;;;;5016119;28;20024;-36
2022/07/09 07:45:53;;;;;;;5.10;4.63;;;21.10;99.90;;;;;;5010349;28;20666;-34
2022/07/09 07:48:19;;;;;;;5.55;3.88;;;21.20;99.90;;;;;;5013547;28;20116;-35
2022/07/09 07:50:44;;;;;;;3.33;2.75;;;21.20;99.90;;;;;;5013370;28;20124;-34
2022/07/09 07:53:09;;;;;;;3.53;2.70;;;21.30;99.90;;;;;;5009627;28;20474;-35
2022/07/09 07:55:35;;;;;;;3.17;2.55;;;21.40;99.90;;;;;;5016461;28;20026;-36
2022/07/09 07:58:01;;;;;;;2.75;2.55;;;21.40;99.90;;;;;;5008803;28;20033;-34
2022/07/09 08:00:27;;;;;;;2.88;2.08;;;21.40;99.90;;;;;;5017187;28;20546;-36
2022/07/09 08:02:52;;;;;;;2.60;2.28;;;21.40;99.90;;;;;;5009248;28;20061;-35
2022/07/09 08:05:18;;;;;;;2.38;2.17;;;21.50;99.90;;;;;;5017517;28;20029;-36
2022/07/09 08:07:43;;;;;;;3.63;2.30;;;21.60;99.90;;;;;;5007103;28;20493;-35
2022/07/09 08:10:09;;;;;;;3.13;2.30;;;21.70;99.90;;;;;;5019321;28;20036;-34
2022/07/09 08:12:35;;;;;;;3.00;2.60;;;21.80;99.90;;;;;;5006309;28;20083;-35
2022/07/09 08:15:01;;;;;;;3.22;2.92;;;21.80;99.90;;;;;;5019186;28;20116;-35
2022/07/09 08:17:26;;;;;;;3.22;2.90;;;21.80;99.90;;;;;;5006754;28;20140;-34
2022/07/09 08:19:52;;;;;;;3.20;2.25;;;21.80;99.90;;;;;;5016062;28;20037;-34
2022/07/09 08:22:17;;;;;;;2.92;2.05;;;21.80;99.90;;;;;;5035802;28;20033;-35
2022/07/09 08:24:43;;;;;;;2.33;1.90;;;21.90;99.90;;;;;;5035125;28;20152;-34
2022/07/09 08:27:08;;;;;;;3.30;2.08;;;22.10;99.90;;;;;;5026271;28;20034;-35
2022/07/09 08:29:34;;;;;;;2.70;2.17;;;22.20;99.90;;;;;;5026725;28;20017;-34
2022/07/09 08:32:00;;;;;;;3.42;2.50;;;22.20;99.90;;;;;;5028293;28;20094;-36
2022/07/09 08:34:25;;;;;;;2.97;2.17;;;22.30;99.90;;;;;;5025983;28;20480;-35
2022/07/09 08:36:51;;;;;;;3.20;2.60;;;22.40;99.90;;;;;;5026952;28;20044;-35
2022/07/09 08:39:16;;;;;;;4.28;3.53;;;22.50;99.90;;;;;;5026617;28;20023;-35
2022/07/09 08:41:43;;;;;;;2.95;2.40;;;22.50;99.90;;;;;;5025799;28;20029;-35
2022/07/09 08:44:11;;;;;;;2.60;2.40;;;22.40;99.90;;;;;;5027077;28;20021;-35
2022/07/09 08:46:37;;;;;;;2.47;2.20;;;22.40;99.90;;;;;;5025960;28;20030;-35
2022/07/09 08:49:04;;;;;;;2.30;2.00;;;22.50;99.90;;;;;;5026427;28;20025;-35
2022/07/09 08:51:30;;;;;;;5.22;2.63;;;22.70;99.90;;;;;;5026272;28;20041;-36
2022/07/09 08:53:56;;;;;;;3.10;2.75;;;22.70;99.90;;;;;;5027306;28;20037;-35
2022/07/09 08:56:22;;;;;;;4.38;2.97;;;22.70;99.90;;;;;;5025129;28;20036;-35
2022/07/09 08:58:47;;;;;;;4.13;3.20;;;22.80;99.90;;;;;;5026929;28;20428;-34
2022/07/09 09:01:14;;;;;;;3.20;2.90;;;22.80;99.90;;;;;;5026535;28;20373;-34
2022/07/09 09:03:42;;;;;;;3.97;3.28;;;22.70;99.90;;;;;;5025586;28;20060;-35
2022/07/09 09:06:08;;;;;;;4.65;3.45;;;22.60;99.90;;;;;;5026934;28;20014;-35
2022/07/09 09:08:38;;;;;;;4.40;3.60;;;22.40;99.90;;;;;;5025928;28;20034;-35
2022/07/09 09:11:05;;;;;;;3.65;2.80;;;22.30;99.90;;;;;;5026586;28;20026;-36
2022/07/09 09:13:36;;;;;;;5.50;4.60;;;22.20;99.90;;;;;;5026670;28;20045;-35
2022/07/09 09:16:03;;;;;;;6.75;4.35;;;22.30;99.90;;;;;;5024769;28;20025;-34
2022/07/09 09:18:29;;;;;;;5.85;4.78;;;22.30;99.90;;;;;;5026133;28;20116;-34
2022/07/09 09:20:54;;;;;;;5.10;4.60;;;22.40;99.90;;;;;;5025936;28;20018;-35
2022/07/09 09:23:20;;;;;;;7.85;7.07;;;22.50;99.90;;;;;;5025196;28;20025;-35
2022/07/09 09:25:46;;;;;;;6.80;5.90;;;22.50;99.90;;;;;;5026101;28;20028;-35
2022/07/09 09:28:14;;;;;;;7.60;6.03;;;22.40;99.90;;;;;;5026089;28;20493;-35
2022/07/09 09:30:43;;;;;;;6.18;5.68;;;22.30;99.90;;;;;;5025315;28;20045;-36
2022/07/09 09:33:09;;;;;;;5.78;5.28;;;22.30;99.90;;;;;;5026327;28;20033;-35
2022/07/09 09:35:41;;;;;;;7.28;5.75;;;22.30;99.90;;;;;;5025075;28;20026;-33
2022/07/09 09:38:07;;;;;;;6.30;5.70;;;22.30;99.90;;;;;;5024930;28;20033;-35
2022/07/09 09:40:32;;;;;;;4.68;4.30;;;22.20;99.90;;;;;;5025650;28;20033;-34
2022/07/09 09:43:02;;;;;;;4.93;4.43;;;22.30;99.90;;;;;;5026405;28;20036;-35
2022/07/09 09:45:28;;;;;;;4.57;4.18;;;22.30;99.90;;;;;;5024770;28;20370;-35
2022/07/09 09:47:53;;;;;;;4.65;4.10;;;22.30;99.90;;;;;;5025650;28;20131;-35
2022/07/09 09:50:24;;;;;;;4.90;3.75;;;22.50;99.90;;;;;;5025439;28;20116;-35
2022/07/09 09:52:54;;;;;;;3.92;3.63;;;22.50;99.90;;;;;;5024781;28;20025;-35
2022/07/09 09:55:21;;;;;;;4.50;3.65;;;22.70;99.90;;;;;;5025912;28;20383;-36
2022/07/09 09:57:48;;;;;;;3.58;3.28;;;22.90;99.90;;;;;;5025237;28;20539;-35
2022/07/09 10:00:15;;;;;;;3.75;3.40;;;22.90;99.90;;;;;;5024649;28;20112;-36
2022/07/09 10:02:44;;;;;;;5.35;3.97;;;23.00;99.90;;;;;;5025511;28;20595;-36
2022/07/09 10:05:09;;;;;;;4.25;3.28;;;22.90;99.90;;;;;;5025040;28;20115;-35
2022/07/09 10:07:35;;;;;;;2.85;2.55;;;22.70;99.90;;;;;;5024628;28;20190;-33
2022/07/09 10:10:01;;;;;;;4.50;4.10;;;22.70;99.90;;;;;;5026254;28;20028;-36
2022/07/09 10:12:34;;;;;;;3.50;3.20;;;22.60;99.90;;;;;;5024485;28;20063;-34
2022/07/09 10:15:00;;;;;;;4.32;3.60;;;22.50;99.90;;;;;;5025531;28;20643;-35
2022/07/09 10:17:26;;;;;;;3.45;2.95;;;22.50;99.90;;;;;;5024761;28;20025;-36
2022/07/09 10:20:04;;;;;;;4.15;2.80;;;22.50;99.90;;;;;;5023026;28;20494;-36
2022/07/09 10:22:41;;;;;;;4.03;2.28;;;22.50;99.90;;;;;;5025115;28;20029;-35
2022/07/09 10:25:08;;;;;;;2.83;2.33;;;22.60;99.90;;;;;;5025571;28;20548;-35
2022/07/09 10:27:45;;;;;;;2.65;1.80;;;22.50;99.90;;;;;;5027099;28;20062;-36
2022/07/09 10:30:32;;;;;;;2.90;2.10;;;22.50;99.90;;;;;;5026733;28;20053;-35
2022/07/09 10:33:02;;;;;;;2.90;1.95;;;22.50;99.80;;;;;;5029578;28;20108;-35
2022/07/09 10:35:28;;;;;;;1.83;1.70;;;22.50;99.90;;;;;;5029007;28;20544;-35
2022/07/09 10:37:54;;;;;;;3.17;1.73;;;22.60;99.90;;;;;;5029357;28;20530;-35
2022/07/09 10:40:21;;;;;;;1.67;1.30;;;22.80;99.50;;;;;;5028779;28;20037;-35
2022/07/09 10:43:00;;;;;;;2.78;1.75;;;22.80;99.50;;;;;;5029829;28;20358;-35
2022/07/09 10:45:35;;;;;;;2.28;1.20;;;22.90;99.10;;;;;;5022032;28;20037;-36
2022/07/09 10:48:02;;;;;;;1.42;1.33;;;22.80;99.20;;;;;;5009276;28;20041;-34
2022/07/09 10:50:30;;;;;;;1.38;1.10;;;22.80;99.40;;;;;;5021282;28;20579;-34
2022/07/09 10:52:57;;;;;;;1.33;1.20;;;22.90;99.30;;;;;;5009935;28;20110;-34
2022/07/09 10:55:27;;;;;;;1.42;1.00;;;22.90;98.10;;;;;;5020730;28;20022;-35
2022/07/09 10:57:53;;;;;;;1.23;1.05;;;22.80;98.40;;;;;;5009953;28;20553;-34
2022/07/09 11:00:22;;;;;;;1.30;1.10;;;22.80;98.50;;;;;;5019551;28;20084;-35
2022/07/09 11:03:06;;;;;;;2.33;1.30;;;22.90;98.70;;;;;;5014004;28;20045;-34
2022/07/09 11:05:33;;;;;;;1.80;1.40;;;23.00;98.40;;;;;;5017495;28;20034;-34
2022/07/09 11:08:03;;;;;;;2.05;1.50;;;23.10;98.30;;;;;;5028100;28;20472;-35
2022/07/09 11:10:31;;;;;;;1.65;1.27;;;23.00;98.20;;;;;;5018153;28;20029;-35
2022/07/09 11:12:59;;;;;;;3.45;1.67;;;23.00;97.70;;;;;;5026130;28;20025;-36
2022/07/09 11:15:29;;;;;;;1.30;1.17;;;22.90;97.70;;;;;;5019776;28;20029;-36
2022/07/09 11:18:02;;;;;;;3.67;1.70;;;22.70;98.00;;;;;;5024464;28;20091;-35
2022/07/09 11:20:29;;;;;;;2.42;1.52;;;22.60;98.40;;;;;;5021667;28;20093;-34
2022/07/09 11:23:00;;;;;;;1.65;1.27;;;22.60;98.60;;;;;;5022092;28;20041;-34
2022/07/09 11:25:27;;;;;;;3.40;1.40;;;22.70;98.30;;;;;;5022783;28;20022;-34
2022/07/09 11:27:54;;;;;;;2.45;1.52;;;22.80;97.80;;;;;;5021062;28;20041;-35
2022/07/09 11:30:20;;;;;;;2.53;1.27;;;22.90;97.50;;;;;;5025070;28;20032;-35
2022/07/09 11:32:46;;;;;;;2.13;1.08;;;22.90;96.90;;;;;;5018414;28;20022;-34
2022/07/09 11:35:11;;;;;;;3.10;1.00;;;22.90;97.00;;;;;;5024608;28;20548;-35
2022/07/09 11:37:38;;;;;;;1.08;0.93;;;22.90;96.70;;;;;;5023506;28;20030;-34
2022/07/09 11:40:04;;;;;;;1.10;1.00;;;22.90;96.60;;;;;;5027562;28;20396;-35
2022/07/09 11:42:30;;;;;;;2.42;1.25;;;23.00;96.40;;;;;;5024491;28;20044;-36
2022/07/09 11:44:59;;;;;;;1.05;0.90;;;22.90;96.10;;;;;;5027857;28;20021;-37
2022/07/09 11:47:35;;;;;;;1.63;1.13;;;22.90;96.20;;;;;;5027595;28;20069;-35
2022/07/09 11:50:09;;;;;;;1.50;1.08;;;23.00;96.10;;;;;;5008507;28;20074;-36
2022/07/09 11:52:35;;;;;;;1.02;0.80;;;23.00;96.30;;;;;;5023299;28;20088;-35
2022/07/09 11:55:07;;;;;;;2.55;0.90;;;23.20;96.20;;;;;;5026915;28;20567;-36
2022/07/09 11:57:35;;;;;;;2.28;1.10;;;23.20;95.30;;;;;;5014003;28;20045;-35
2022/07/09 12:00:04;;;;;;;2.08;0.80;;;23.10;94.90;;;;;;5028667;28;20025;-41
2022/07/09 12:02:37;;;;;;;1.15;0.80;;;22.90;95.50;;;;;;5016025;28;20097;-35
2022/07/09 12:05:07;;;;;;;2.63;1.00;;;22.90;95.50;;;;;;5007790;28;20045;-35
2022/07/09 12:07:34;;;;;;;2.38;0.82;;;23.00;95.30;;;;;;5018430;28;20048;-34
2022/07/09 12:10:04;;;;;;;1.85;0.80;;;23.00;95.10;;;;;;5027696;28;20037;-36
2022/07/09 12:12:31;;;;;;;3.95;1.00;;;23.10;94.70;;;;;;5022518;28;20124;-35
2022/07/09 12:14:56;;;;;;;1.77;0.88;;;22.90;94.50;;;;;;5011475;28;20074;-34
2022/07/09 12:17:26;;;;;;;2.60;1.02;;;22.80;94.90;;;;;;5014209;28;20061;-37
2022/07/09 12:19:53;;;;;;;1.13;1.00;;;22.80;94.10;;;;;;5012288;28;20033;-35
2022/07/09 12:22:19;;;;;;;1.60;0.82;;;22.70;94.30;;;;;;5012600;28;20041;-36
2022/07/09 12:24:44;;;;;;;1.23;0.70;;;22.80;94.70;;;;;;5015330;28;20101;-35
2022/07/09 12:27:10;;;;;;;2.22;0.88;;;22.90;94.80;;;;;;5008904;28;20060;-34
2022/07/09 12:29:36;;;;;;;1.05;0.90;;;23.10;94.70;;;;;;4999663;28;20032;-34
2022/07/09 12:32:03;;;;;;;1.35;1.05;;;23.20;94.10;;;;;;5009001;28;20065;-35
2022/07/09 12:34:28;;;;;;;1.90;0.80;;;23.30;93.90;;;;;;5017417;28;20018;-35
2022/07/09 12:36:54;;;;;;;2.20;1.30;;;23.40;93.60;;;;;;5008854;28;20056;-36
2022/07/09 12:39:20;;;;;;;1.85;0.70;;;23.40;92.70;;;;;;5018233;28;20034;-35